CFG4NK EDLW-EDDF
Flight info
| Callsign | CFG4NK |
|---|---|
| Flight time | 0h 31m |
| Altitude | 20000 |
| Route | GMH8Q GMH DCT COL T911 ROLIS ROLIS5D |
| Aircraft | A21N/M-SDE2E3FGHIRWXY/LB1 |
Departure
| Time | 2026-05-07 19:16 |
|---|---|
| Airport | Dortmund Airport (EDLW) |
Arrival
| Time | 2026-05-07 19:47 |
|---|---|
| Airport | Frankfurt Main Airport (EDDF) |
| Time | Latitude | Longitude | Altitude | Speed | Heading |
|---|---|---|---|---|---|
| 2026-05-07 18:54 | 51.51559 | 7.61226 | 440 ft | 0 kts | 332° |
| 2026-05-07 19:11 | 51.51561 | 7.61225 | 439 ft | 1 kts | 332° |
| 2026-05-07 19:11 | 51.51577 | 7.61211 | 432 ft | 4 kts | 332° |
| 2026-05-07 19:12 | 51.51606 | 7.61180 | 435 ft | 5 kts | 309° |
| 2026-05-07 19:12 | 51.51603 | 7.61117 | 435 ft | 7 kts | 250° |
| 2026-05-07 19:12 | 51.51583 | 7.61039 | 432 ft | 8 kts | 246° |
| 2026-05-07 19:12 | 51.51554 | 7.60945 | 436 ft | 10 kts | 241° |
| 2026-05-07 19:13 | 51.51517 | 7.60840 | 420 ft | 11 kts | 240° |
| 2026-05-07 19:13 | 51.51492 | 7.60767 | 428 ft | 0 kts | 240° |
| 2026-05-07 19:14 | 51.51490 | 7.60761 | 428 ft | 2 kts | 240° |
| 2026-05-07 19:14 | 51.51489 | 7.60761 | 428 ft | 0 kts | 240° |
| 2026-05-07 19:14 | 51.51484 | 7.60747 | 425 ft | 3 kts | 240° |
| 2026-05-07 19:14 | 51.51466 | 7.60696 | 423 ft | 7 kts | 240° |
| 2026-05-07 19:15 | 51.51437 | 7.60612 | 423 ft | 11 kts | 240° |
| 2026-05-07 19:15 | 51.51393 | 7.60486 | 427 ft | 14 kts | 240° |
| 2026-05-07 19:15 | 51.51366 | 7.60328 | 421 ft | 16 kts | 288° |
| 2026-05-07 19:15 | 51.51455 | 7.60232 | 414 ft | 16 kts | 7° |
| 2026-05-07 19:16 | 51.51529 | 7.60362 | 410 ft | 17 kts | 62° |
| 2026-05-07 19:16 | 51.51646 | 7.60702 | 416 ft | 69 kts | 60° |
| 2026-05-07 19:16 | 51.52030 | 7.61785 | 429 ft | 151 kts | 61° |
| 2026-05-07 19:16 | 51.52580 | 7.63307 | 1268 ft | 165 kts | 60° |
| 2026-05-07 19:17 | 51.53168 | 7.64924 | 2339 ft | 161 kts | 60° |
| 2026-05-07 19:17 | 51.53694 | 7.66559 | 2901 ft | 171 kts | 62° |
| 2026-05-07 19:17 | 51.54297 | 7.68326 | 3311 ft | 189 kts | 59° |
| 2026-05-07 19:17 | 51.54972 | 7.70223 | 3792 ft | 203 kts | 59° |
| 2026-05-07 19:18 | 51.55703 | 7.72268 | 4314 ft | 219 kts | 59° |
| 2026-05-07 19:18 | 51.56349 | 7.74628 | 4641 ft | 245 kts | 79° |
| 2026-05-07 19:18 | 51.56273 | 7.77458 | 5158 ft | 263 kts | 105° |
| 2026-05-07 19:18 | 51.55405 | 7.80070 | 5931 ft | 271 kts | 130° |
| 2026-05-07 19:19 | 51.53883 | 7.81869 | 6718 ft | 276 kts | 159° |
| 2026-05-07 19:19 | 51.52004 | 7.82387 | 7483 ft | 277 kts | 186° |
| 2026-05-07 19:19 | 51.50175 | 7.81500 | 8253 ft | 278 kts | 212° |
| 2026-05-07 19:19 | 51.48762 | 7.79402 | 9018 ft | 279 kts | 234° |
| 2026-05-07 19:20 | 51.47566 | 7.76989 | 9768 ft | 284 kts | 221° |
| 2026-05-07 19:20 | 51.45809 | 7.75474 | 10358 ft | 295 kts | 200° |
| 2026-05-07 19:20 | 51.43741 | 7.74766 | 10683 ft | 315 kts | 184° |
| 2026-05-07 19:20 | 51.41500 | 7.75162 | 10960 ft | 335 kts | 165° |
| 2026-05-07 19:21 | 51.39243 | 7.76448 | 11254 ft | 354 kts | 159° |
| 2026-05-07 19:21 | 51.36889 | 7.77903 | 11526 ft | 371 kts | 160° |
| 2026-05-07 19:21 | 51.34439 | 7.79367 | 11822 ft | 386 kts | 161° |
| 2026-05-07 19:21 | 51.31882 | 7.80848 | 12379 ft | 392 kts | 161° |
| 2026-05-07 19:22 | 51.29303 | 7.82321 | 12910 ft | 396 kts | 161° |
| 2026-05-07 19:22 | 51.26697 | 7.83790 | 13114 ft | 397 kts | 161° |
| 2026-05-07 19:22 | 51.24095 | 7.85249 | 13140 ft | 397 kts | 161° |
| 2026-05-07 19:22 | 51.21478 | 7.86703 | 13126 ft | 397 kts | 162° |
| 2026-05-07 19:23 | 51.18795 | 7.87694 | 13109 ft | 396 kts | 174° |
| 2026-05-07 19:23 | 51.16051 | 7.87639 | 13097 ft | 394 kts | 189° |
| 2026-05-07 19:23 | 51.13419 | 7.86495 | 13098 ft | 392 kts | 203° |
| 2026-05-07 19:23 | 51.10984 | 7.84662 | 13106 ft | 392 kts | 207° |
| 2026-05-07 19:24 | 51.08519 | 7.82687 | 13102 ft | 392 kts | 207° |
| 2026-05-07 19:24 | 51.06080 | 7.80750 | 13091 ft | 392 kts | 207° |
| 2026-05-07 19:24 | 51.03666 | 7.78859 | 13093 ft | 392 kts | 207° |
| 2026-05-07 19:24 | 51.01208 | 7.76956 | 13096 ft | 392 kts | 207° |
| 2026-05-07 19:25 | 50.98763 | 7.75070 | 13253 ft | 392 kts | 207° |
| 2026-05-07 19:25 | 50.96298 | 7.73174 | 13747 ft | 394 kts | 207° |
| 2026-05-07 19:25 | 50.93810 | 7.71310 | 14043 ft | 397 kts | 203° |
| 2026-05-07 19:25 | 50.91081 | 7.70276 | 14110 ft | 410 kts | 186° |
| 2026-05-07 19:26 | 50.88264 | 7.70557 | 14105 ft | 414 kts | 169° |
| 2026-05-07 19:26 | 50.85524 | 7.71974 | 14118 ft | 415 kts | 160° |
| 2026-05-07 19:26 | 50.82832 | 7.73628 | 14103 ft | 415 kts | 160° |
| 2026-05-07 19:26 | 50.80117 | 7.75214 | 14093 ft | 415 kts | 161° |
| 2026-05-07 19:27 | 50.77400 | 7.76724 | 14090 ft | 415 kts | 162° |
| 2026-05-07 19:27 | 50.74665 | 7.78205 | 14088 ft | 415 kts | 162° |
| 2026-05-07 19:27 | 50.71937 | 7.79673 | 14088 ft | 415 kts | 162° |
| 2026-05-07 19:27 | 50.69194 | 7.81135 | 14085 ft | 415 kts | 162° |
| 2026-05-07 19:28 | 50.66466 | 7.82592 | 14085 ft | 415 kts | 162° |
| 2026-05-07 19:28 | 50.63730 | 7.84053 | 14086 ft | 415 kts | 162° |
| 2026-05-07 19:28 | 50.60996 | 7.85509 | 14082 ft | 415 kts | 162° |
| 2026-05-07 19:28 | 50.58255 | 7.86962 | 14086 ft | 415 kts | 162° |
| 2026-05-07 19:29 | 50.55554 | 7.88392 | 14088 ft | 415 kts | 162° |
| 2026-05-07 19:29 | 50.52810 | 7.89837 | 14095 ft | 415 kts | 162° |
| 2026-05-07 19:29 | 50.50075 | 7.91272 | 14103 ft | 415 kts | 162° |
| 2026-05-07 19:29 | 50.47337 | 7.92712 | 14113 ft | 415 kts | 162° |
| 2026-05-07 19:30 | 50.44591 | 7.94160 | 14122 ft | 415 kts | 162° |
| 2026-05-07 19:30 | 50.41855 | 7.95604 | 14109 ft | 415 kts | 162° |
| 2026-05-07 19:30 | 50.39119 | 7.97045 | 14111 ft | 415 kts | 162° |
| 2026-05-07 19:30 | 50.36378 | 7.98486 | 14116 ft | 416 kts | 162° |
| 2026-05-07 19:31 | 50.33623 | 7.99928 | 14124 ft | 416 kts | 162° |
| 2026-05-07 19:31 | 50.30915 | 8.01344 | 14122 ft | 416 kts | 162° |
| 2026-05-07 19:31 | 50.28184 | 8.02833 | 14120 ft | 416 kts | 159° |
| 2026-05-07 19:31 | 50.25659 | 8.05146 | 14123 ft | 419 kts | 142° |
| 2026-05-07 19:32 | 50.23723 | 8.08402 | 14034 ft | 407 kts | 125° |
| 2026-05-07 19:32 | 50.22530 | 8.12270 | 13844 ft | 389 kts | 107° |
| 2026-05-07 19:32 | 50.22205 | 8.14988 | 13707 ft | 379 kts | 94° |
| 2026-05-07 19:32 | 50.22364 | 8.18997 | 13526 ft | 362 kts | 81° |
| 2026-05-07 19:33 | 50.22705 | 8.22818 | 13348 ft | 347 kts | 86° |
| 2026-05-07 19:33 | 50.22566 | 8.26489 | 13160 ft | 333 kts | 100° |
| 2026-05-07 19:33 | 50.22095 | 8.29967 | 12986 ft | 320 kts | 104° |
| 2026-05-07 19:33 | 50.21571 | 8.33274 | 12733 ft | 310 kts | 104° |
| 2026-05-07 19:34 | 50.20928 | 8.36472 | 12198 ft | 309 kts | 116° |
| 2026-05-07 19:34 | 50.19637 | 8.39126 | 11670 ft | 307 kts | 141° |
| 2026-05-07 19:34 | 50.17794 | 8.40734 | 11194 ft | 303 kts | 160° |
| 2026-05-07 19:34 | 50.15812 | 8.41827 | 10739 ft | 301 kts | 162° |
| 2026-05-07 19:35 | 50.13774 | 8.42495 | 10268 ft | 298 kts | 181° |
| 2026-05-07 19:35 | 50.11784 | 8.41828 | 9775 ft | 293 kts | 208° |
| 2026-05-07 19:35 | 50.10234 | 8.39868 | 9330 ft | 286 kts | 234° |
| 2026-05-07 19:35 | 50.09352 | 8.37185 | 8871 ft | 282 kts | 251° |
| 2026-05-07 19:36 | 50.08714 | 8.34304 | 8403 ft | 281 kts | 252° |
| 2026-05-07 19:36 | 50.08074 | 8.31406 | 7950 ft | 279 kts | 251° |
| 2026-05-07 19:36 | 50.07431 | 8.28600 | 7532 ft | 277 kts | 251° |
| 2026-05-07 19:36 | 50.06774 | 8.25790 | 7125 ft | 275 kts | 251° |
| 2026-05-07 19:37 | 50.06101 | 8.22974 | 6707 ft | 273 kts | 250° |
| 2026-05-07 19:37 | 50.05436 | 8.20223 | 6324 ft | 270 kts | 250° |
| 2026-05-07 19:37 | 50.04780 | 8.17522 | 6085 ft | 263 kts | 250° |
| 2026-05-07 19:37 | 50.04151 | 8.14937 | 5918 ft | 255 kts | 250° |
| 2026-05-07 19:38 | 50.03534 | 8.12404 | 5767 ft | 246 kts | 250° |
| 2026-05-07 19:38 | 50.02925 | 8.09905 | 5602 ft | 247 kts | 250° |
| 2026-05-07 19:38 | 50.02309 | 8.07411 | 5461 ft | 248 kts | 248° |
| 2026-05-07 19:38 | 50.01395 | 8.05150 | 5313 ft | 249 kts | 226° |
| 2026-05-07 19:39 | 49.99997 | 8.03655 | 5153 ft | 242 kts | 203° |
| 2026-05-07 19:39 | 49.98374 | 8.03185 | 4963 ft | 238 kts | 174° |
| 2026-05-07 19:39 | 49.96791 | 8.03924 | 4956 ft | 240 kts | 155° |
| 2026-05-07 19:39 | 49.95312 | 8.05115 | 4966 ft | 240 kts | 145° |
| 2026-05-07 19:40 | 49.94200 | 8.07000 | 4966 ft | 238 kts | 114° |
| 2026-05-07 19:40 | 49.93915 | 8.09479 | 4973 ft | 233 kts | 81° |
| 2026-05-07 19:40 | 49.94306 | 8.11786 | 4969 ft | 211 kts | 67° |
| 2026-05-07 19:40 | 49.94847 | 8.13730 | 5037 ft | 178 kts | 64° |
| 2026-05-07 19:41 | 49.95320 | 8.15345 | 5022 ft | 158 kts | 64° |
| 2026-05-07 19:41 | 49.95735 | 8.16840 | 4938 ft | 148 kts | 65° |
| 2026-05-07 19:41 | 49.96142 | 8.18295 | 4786 ft | 146 kts | 65° |
| 2026-05-07 19:41 | 49.96518 | 8.19766 | 4616 ft | 146 kts | 67° |
| 2026-05-07 19:42 | 49.96873 | 8.21220 | 4423 ft | 145 kts | 67° |
| 2026-05-07 19:42 | 49.97229 | 8.22692 | 4228 ft | 145 kts | 67° |
| 2026-05-07 19:42 | 49.97580 | 8.24155 | 4012 ft | 144 kts | 67° |
| 2026-05-07 19:42 | 49.97931 | 8.25614 | 3803 ft | 143 kts | 67° |
| 2026-05-07 19:43 | 49.98276 | 8.27054 | 3602 ft | 142 kts | 67° |
| 2026-05-07 19:43 | 49.98620 | 8.28488 | 3409 ft | 141 kts | 67° |
| 2026-05-07 19:43 | 49.98962 | 8.29913 | 3198 ft | 140 kts | 68° |
| 2026-05-07 19:43 | 49.99300 | 8.31327 | 2993 ft | 139 kts | 68° |
| 2026-05-07 19:44 | 49.99637 | 8.32730 | 2789 ft | 138 kts | 68° |
| 2026-05-07 19:44 | 49.99967 | 8.34107 | 2580 ft | 137 kts | 68° |
| 2026-05-07 19:44 | 50.00299 | 8.35494 | 2387 ft | 136 kts | 68° |
| 2026-05-07 19:44 | 50.00631 | 8.36879 | 2184 ft | 136 kts | 68° |
| 2026-05-07 19:45 | 50.00959 | 8.38248 | 1994 ft | 135 kts | 68° |
| 2026-05-07 19:45 | 50.01286 | 8.39613 | 1795 ft | 134 kts | 69° |
| 2026-05-07 19:45 | 50.01614 | 8.40983 | 1595 ft | 134 kts | 69° |
| 2026-05-07 19:45 | 50.01934 | 8.42319 | 1400 ft | 134 kts | 69° |
| 2026-05-07 19:46 | 50.02259 | 8.43676 | 1204 ft | 134 kts | 69° |
| 2026-05-07 19:46 | 50.02585 | 8.45034 | 1018 ft | 134 kts | 69° |
| 2026-05-07 19:46 | 50.02907 | 8.46385 | 812 ft | 133 kts | 69° |
| 2026-05-07 19:46 | 50.03232 | 8.47730 | 630 ft | 133 kts | 69° |
| 2026-05-07 19:47 | 50.03550 | 8.49069 | 452 ft | 132 kts | 69° |
| 2026-05-07 19:47 | 50.03871 | 8.50401 | 330 ft | 128 kts | 69° |
| 2026-05-07 19:47 | 50.04144 | 8.51519 | 336 ft | 87 kts | 69° |
| 2026-05-07 19:47 | 50.04293 | 8.52150 | 347 ft | 37 kts | 71° |
| 2026-05-07 19:48 | 50.04340 | 8.52359 | 350 ft | 21 kts | 70° |
| 2026-05-07 19:48 | 50.04385 | 8.52593 | 358 ft | 24 kts | 81° |
| 2026-05-07 19:48 | 50.04386 | 8.52858 | 355 ft | 25 kts | 99° |
| 2026-05-07 19:48 | 50.04358 | 8.53140 | 365 ft | 27 kts | 98° |
| 2026-05-07 19:49 | 50.04382 | 8.53438 | 378 ft | 29 kts | 70° |
| 2026-05-07 19:49 | 50.04411 | 8.53761 | 381 ft | 31 kts | 83° |
| 2026-05-07 19:49 | 50.04433 | 8.54088 | 381 ft | 28 kts | 84° |
| 2026-05-07 19:49 | 50.04451 | 8.54352 | 379 ft | 14 kts | 84° |
| 2026-05-07 19:50 | 50.04449 | 8.54511 | 373 ft | 15 kts | 100° |
| 2026-05-07 19:50 | 50.04402 | 8.54663 | 370 ft | 16 kts | 127° |
| 2026-05-07 19:50 | 50.04313 | 8.54771 | 362 ft | 17 kts | 165° |
| 2026-05-07 19:50 | 50.04201 | 8.54835 | 361 ft | 8 kts | 159° |
| 2026-05-07 19:51 | 50.04200 | 8.54836 | 360 ft | 0 kts | 159° |
| 2026-05-07 19:51 | 50.04196 | 8.54838 | 359 ft | 2 kts | 159° |
| 2026-05-07 19:51 | 50.04177 | 8.54850 | 361 ft | 4 kts | 159° |
| 2026-05-07 19:51 | 50.04135 | 8.54874 | 361 ft | 8 kts | 159° |
| 2026-05-07 19:52 | 50.04067 | 8.54911 | 363 ft | 12 kts | 158° |
| 2026-05-07 19:52 | 50.04020 | 8.54961 | 362 ft | 9 kts | 115° |
| 2026-05-07 19:52 | 50.04028 | 8.55060 | 365 ft | 11 kts | 69° |
| 2026-05-07 19:52 | 50.04059 | 8.55184 | 361 ft | 14 kts | 69° |
| 2026-05-07 19:53 | 50.04098 | 8.55344 | 363 ft | 17 kts | 69° |
| 2026-05-07 19:53 | 50.04139 | 8.55524 | 357 ft | 18 kts | 70° |
| 2026-05-07 19:53 | 50.04185 | 8.55716 | 364 ft | 20 kts | 70° |
| 2026-05-07 19:53 | 50.04195 | 8.55760 | 362 ft | 0 kts | 70° |
| 2026-05-07 19:54 | 50.04200 | 8.55780 | 362 ft | 4 kts | 70° |
| 2026-05-07 19:55 | 50.04214 | 8.55837 | 363 ft | 8 kts | 68° |
| 2026-05-07 19:55 | 50.04239 | 8.55929 | 360 ft | 11 kts | 56° |
| 2026-05-07 19:55 | 50.04317 | 8.55943 | 363 ft | 13 kts | 341° |
| 2026-05-07 19:55 | 50.04407 | 8.55948 | 366 ft | 15 kts | 48° |
| 2026-05-07 19:56 | 50.04442 | 8.56078 | 367 ft | 11 kts | 70° |
| 2026-05-07 19:56 | 50.04459 | 8.56146 | 364 ft | 6 kts | 69° |
| 2026-05-07 19:56 | 50.04477 | 8.56220 | 364 ft | 8 kts | 70° |
| 2026-05-07 19:56 | 50.04499 | 8.56312 | 361 ft | 10 kts | 70° |
| 2026-05-07 19:57 | 50.04532 | 8.56415 | 364 ft | 12 kts | 41° |
| 2026-05-07 19:57 | 50.04602 | 8.56476 | 367 ft | 3 kts | 24° |
| 2026-05-07 19:57 | 50.04610 | 8.56516 | 368 ft | 5 kts | 102° |
| 2026-05-07 19:57 | 50.04593 | 8.56576 | 364 ft | 7 kts | 115° |
| 2026-05-07 19:58 | 50.04581 | 8.56617 | 364 ft | 3 kts | 114° |
| 2026-05-07 19:58 | 50.04579 | 8.56624 | 363 ft | 0 kts | 114° |